Time;durP1;ratioP1;P1;durP2;ratioP2;P2;SDS_P1;SDS_P2;PMS_P1;PMS_P2;Temp;Humidity;BMP_temperature;BMP_pressure;BME280_temperature;BME280_humidity;BME280_pressure;Samples;Min_cycle;Max_cycle;Signal;HPM_P1;HPM_P2
2021/03/18 00:02:21;;;;;;;19.50;4.20;;;;;;;;;;4909288;28;20228;-80
2021/03/18 00:04:47;;;;;;;;;;;;;;;;;;4918394;28;20053;-82
2021/03/18 00:07:13;;;;;;;16.80;4.28;;;;;;;;;;4912314;28;20002;-82
2021/03/18 00:09:41;;;;;;;17.23;3.40;;;;;;;;;;4906404;28;20498;-82
2021/03/18 00:12:07;;;;;;;17.15;3.92;;;;;;;;;;4905596;28;20043;-83
2021/03/18 00:14:35;;;;;;;18.95;4.32;;;;;;;;;;4900304;29;20680;-81
2021/03/18 00:17:02;;;;;;;25.73;4.45;;;;;;;;;;4904118;28;20094;-82
2021/03/18 00:19:31;;;;;;;16.38;3.80;;;;;;;;;;4904755;29;20072;-82
2021/03/18 00:21:58;;;;;;;20.55;4.05;;;;;;;;;;4897401;29;20127;-83
2021/03/18 00:24:24;;;;;;;25.67;4.72;;;;;;;;;;4884248;29;20055;-82
2021/03/18 00:26:52;;;;;;;21.75;4.00;;;;;;;;;;4880354;29;20409;-82
2021/03/18 00:29:18;;;;;;;21.20;3.75;;;;;;;;;;4842084;29;20033;-82
2021/03/18 00:31:44;;;;;;;15.40;3.50;;;;;;;;;;4867903;29;20062;-82
2021/03/18 00:34:10;;;;;;;;;;;;;;;;;;4880904;29;20523;-82
2021/03/18 00:36:36;;;;;;;17.67;3.90;;;;;;;;;;4872549;29;19915;-82
2021/03/18 00:39:03;;;;;;;;;;;;;;;;;;4854886;29;20087;-82
2021/03/18 00:41:31;;;;;;;17.98;3.80;;;;;;;;;;4882604;29;19926;-82
2021/03/18 00:43:57;;;;;;;15.45;3.67;;;;;;;;;;4880688;29;20078;-83
2021/03/18 00:46:24;;;;;;;22.27;4.10;;;;;;;;;;4860317;29;20040;-82
2021/03/18 00:48:52;;;;;;;18.90;4.15;;;;;;;;;;4873466;29;20056;-82
2021/03/18 00:51:18;;;;;;;19.75;4.32;;;;;;;;;;4865927;29;20036;-82
2021/03/18 00:53:48;;;;;;;19.02;4.05;;;;;;;;;;4890185;29;20040;-82
2021/03/18 00:56:18;;;;;;;17.67;3.50;;;;;;;;;;4904253;28;20038;-84
2021/03/18 00:58:48;;;;;;;25.33;4.05;;;;;;;;;;4886850;29;20124;-82
2021/03/18 01:01:15;;;;;;;19.90;4.03;;;;;;;;;;4898955;29;20079;-84
2021/03/18 01:03:43;;;;;;;17.67;3.67;;;;;;;;;;4902803;29;20118;-83
2021/03/18 01:06:11;;;;;;;20.35;4.45;;;;;;;;;;4922821;28;20047;-82
2021/03/18 01:08:38;;;;;;;19.67;3.72;;;;;;;;;;4902401;29;20051;-82
2021/03/18 01:17:11;;;;;;;15.48;3.53;;;;;;;;;;4900379;28;20190;-83
2021/03/18 01:19:37;;;;;;;18.88;3.80;;;;;;;;;;4897607;28;20181;-81
2021/03/18 01:22:03;;;;;;;;;;;;;;;;;;4903530;28;20584;-82
2021/03/18 01:24:29;;;;;;;17.05;2.97;;;;;;;;;;4902298;28;19949;-82
2021/03/18 01:26:55;;;;;;;14.77;3.25;;;;;;;;;;4918031;28;20023;-82
2021/03/18 01:29:21;;;;;;;12.82;2.92;;;;;;;;;;4906039;28;20460;-82
2021/03/18 01:31:48;;;;;;;16.90;2.75;;;;;;;;;;4917139;28;20161;-81
2021/03/18 01:34:15;;;;;;;17.80;2.90;;;;;;;;;;4901779;28;20031;-82
2021/03/18 01:36:42;;;;;;;15.60;2.83;;;;;;;;;;4915869;28;22958;-81
2021/03/18 01:39:08;;;;;;;14.15;2.88;;;;;;;;;;4904985;28;20074;-82
2021/03/18 01:41:35;;;;;;;15.15;3.28;;;;;;;;;;4905138;28;20044;-81
2021/03/18 01:44:03;;;;;;;13.77;2.80;;;;;;;;;;4904474;28;20054;-81
2021/03/18 01:46:29;;;;;;;15.13;3.08;;;;;;;;;;4903213;28;20494;-82
2021/03/18 01:48:55;;;;;;;16.63;3.00;;;;;;;;;;4910523;28;20036;-82
2021/03/18 01:51:22;;;;;;;14.75;2.80;;;;;;;;;;4906079;28;20039;-86
2021/03/18 01:53:48;;;;;;;;;;;;;;;;;;4904114;28;20023;-81
2021/03/18 01:56:16;;;;;;;15.68;3.17;;;;;;;;;;4903953;28;19926;-81
2021/03/18 01:58:44;;;;;;;11.68;2.42;;;;;;;;;;4916952;28;20893;-80
2021/03/18 02:01:13;;;;;;;15.07;3.08;;;;;;;;;;4911637;28;20044;-82
2021/03/18 02:03:39;;;;;;;13.02;2.78;;;;;;;;;;4908088;28;20058;-81
2021/03/18 02:06:06;;;;;;;15.20;2.63;;;;;;;;;;4902104;28;20031;-82
2021/03/18 02:08:32;;;;;;;17.08;2.95;;;;;;;;;;4903648;28;20490;-81
2021/03/18 02:10:58;;;;;;;;;;;;;;;;;;4904265;28;20205;-82
2021/03/18 02:13:25;;;;;;;17.40;2.95;;;;;;;;;;4902617;28;20405;-81
2021/03/18 02:15:52;;;;;;;15.10;2.85;;;;;;;;;;4910672;28;20034;-82
2021/03/18 02:18:31;;;;;;;13.38;2.55;;;;;;;;;;4908037;28;20043;-82
2021/03/18 02:21:00;;;;;;;14.13;3.00;;;;;;;;;;4924023;28;20030;-82
2021/03/18 02:23:45;;;;;;;15.00;2.75;;;;;;;;;;4900491;28;20566;-82
2021/03/18 02:26:24;;;;;;;11.98;2.42;;;;;;;;;;4902126;28;20042;-83
2021/03/18 02:29:07;;;;;;;13.43;2.40;;;;;;;;;;4890490;28;20035;-82
2021/03/18 02:31:39;;;;;;;14.32;2.80;;;;;;;;;;4897644;28;20693;-81
2021/03/18 02:34:25;;;;;;;19.42;2.90;;;;;;;;;;4901437;28;20047;-81
2021/03/18 02:36:55;;;;;;;14.10;2.80;;;;;;;;;;4918164;28;20607;-82
2021/03/18 02:39:28;;;;;;;13.55;2.28;;;;;;;;;;4922005;28;20039;-84
2021/03/18 02:41:59;;;;;;;13.35;2.42;;;;;;;;;;4920749;28;20399;-81
2021/03/18 02:44:27;;;;;;;13.02;2.47;;;;;;;;;;4923278;28;20570;-81
2021/03/18 02:46:57;;;;;;;12.13;2.10;;;;;;;;;;4900582;28;20130;-81
2021/03/18 02:49:24;;;;;;;11.68;2.20;;;;;;;;;;4919960;28;20036;-82
2021/03/18 02:51:52;;;;;;;8.73;1.92;;;;;;;;;;4907630;28;20111;-82
2021/03/18 02:54:25;;;;;;;9.60;1.98;;;;;;;;;;4905500;28;20039;-81
2021/03/18 02:56:53;;;;;;;7.72;1.50;;;;;;;;;;4892810;28;20542;-82
2021/03/18 02:59:24;;;;;;;11.00;1.63;;;;;;;;;;4906369;28;20050;-82
2021/03/18 03:01:51;;;;;;;10.00;1.65;;;;;;;;;;4884814;28;20031;-83
2021/03/18 03:04:20;;;;;;;13.68;1.60;;;;;;;;;;4910256;28;20098;-82
2021/03/18 03:06:51;;;;;;;11.45;1.85;;;;;;;;;;4925593;28;20042;-81
2021/03/18 03:09:19;;;;;;;10.20;2.00;;;;;;;;;;4927270;28;20709;-82
2021/03/18 03:11:47;;;;;;;13.10;2.20;;;;;;;;;;4895906;28;20066;-82
2021/03/18 03:14:14;;;;;;;9.90;1.80;;;;;;;;;;4898758;28;20480;-82
2021/03/18 03:16:41;;;;;;;11.85;1.92;;;;;;;;;;4900657;28;20052;-82
2021/03/18 03:19:10;;;;;;;10.07;1.88;;;;;;;;;;4892604;29;20156;-81
2021/03/18 03:21:37;;;;;;;12.13;2.00;;;;;;;;;;4881388;28;20165;-82
2021/03/18 03:24:07;;;;;;;9.88;2.13;;;;;;;;;;4897133;28;20102;-82
2021/03/18 03:26:33;;;;;;;10.60;1.60;;;;;;;;;;4917762;28;20047;-82
2021/03/18 03:29:01;;;;;;;9.27;1.73;;;;;;;;;;4869001;29;20459;-81
2021/03/18 03:31:27;;;;;;;7.68;1.38;;;;;;;;;;4908117;28;20051;-81
2021/03/18 03:33:53;;;;;;;;;;;;;;;;;;4904790;28;20513;-82
2021/03/18 03:36:20;;;;;;;11.55;1.67;;;;;;;;;;4906583;28;20367;-82
2021/03/18 03:38:50;;;;;;;10.80;1.80;;;;;;;;;;4923180;28;20689;-81
2021/03/18 03:41:17;;;;;;;8.30;1.80;;;;;;;;;;4908614;28;20126;-81
2021/03/18 03:43:47;;;;;;;10.40;1.60;;;;;;;;;;4933176;28;20086;-82
2021/03/18 03:46:14;;;;;;;10.63;1.90;;;;;;;;;;4917747;28;20131;-82
2021/03/18 03:48:42;;;;;;;11.85;2.17;;;;;;;;;;4904568;28;20400;-83
2021/03/18 03:51:08;;;;;;;9.80;2.00;;;;;;;;;;4919721;28;20035;-82
2021/03/18 03:53:42;;;;;;;10.65;1.95;;;;;;;;;;4922303;28;20325;-82
2021/03/18 03:56:21;;;;;;;11.73;1.70;;;;;;;;;;4906220;28;20463;-83
2021/03/18 03:58:53;;;;;;;10.95;1.88;;;;;;;;;;4902169;28;20028;-82
2021/03/18 04:01:38;;;;;;;10.15;2.17;;;;;;;;;;4896911;29;20036;-83
2021/03/18 04:04:17;;;;;;;13.93;2.15;;;;;;;;;;4920314;28;20050;-83
2021/03/18 04:06:47;;;;;;;10.35;2.25;;;;;;;;;;4917957;28;21516;-82
2021/03/18 04:09:19;;;;;;;11.68;2.22;;;;;;;;;;4911362;28;20133;-81
2021/03/18 04:11:49;;;;;;;11.32;1.98;;;;;;;;;;4898247;28;20039;-81
2021/03/18 04:14:17;;;;;;;8.50;1.63;;;;;;;;;;4899779;28;20555;-81
2021/03/18 04:16:44;;;;;;;9.15;1.88;;;;;;;;;;4891450;29;20560;-81
2021/03/18 04:19:18;;;;;;;14.75;1.85;;;;;;;;;;4918395;28;20043;-81
2021/03/18 04:21:53;;;;;;;11.13;1.88;;;;;;;;;;4904575;28;20503;-81
2021/03/18 04:24:32;;;;;;;12.73;2.17;;;;;;;;;;4922451;28;20030;-81
2021/03/18 04:26:59;;;;;;;13.63;2.53;;;;;;;;;;4912553;28;20344;-81
2021/03/18 04:29:27;;;;;;;12.30;2.30;;;;;;;;;;4902044;29;20047;-84
2021/03/18 04:31:55;;;;;;;13.80;2.70;;;;;;;;;;4894088;28;20048;-82
2021/03/18 04:34:23;;;;;;;10.57;2.00;;;;;;;;;;4901548;28;20447;-82
2021/03/18 04:36:50;;;;;;;15.13;3.05;;;;;;;;;;4903231;28;20038;-82
2021/03/18 04:39:18;;;;;;;16.98;2.78;;;;;;;;;;4901301;28;20039;-82
2021/03/18 04:41:46;;;;;;;13.55;2.58;;;;;;;;;;4928098;28;20044;-82
2021/03/18 04:44:17;;;;;;;12.52;2.35;;;;;;;;;;4902616;28;20539;-84
2021/03/18 04:46:47;;;;;;;15.27;2.38;;;;;;;;;;4906174;28;20039;-84
2021/03/18 04:49:20;;;;;;;14.95;2.83;;;;;;;;;;4915478;28;20110;-82
2021/03/18 04:51:51;;;;;;;15.13;3.00;;;;;;;;;;4922752;28;20099;-90
2021/03/18 04:54:18;;;;;;;13.27;2.50;;;;;;;;;;4921746;29;20031;-90
2021/03/18 04:56:58;;;;;;;12.77;2.65;;;;;;;;;;4938641;28;20048;-91
2021/03/18 04:59:27;;;;;;;11.75;2.60;;;;;;;;;;4920226;28;20031;-91
2021/03/18 05:01:55;;;;;;;18.80;3.05;;;;;;;;;;4860357;29;20037;-90
2021/03/18 05:04:22;;;;;;;18.13;2.58;;;;;;;;;;4871085;29;20044;-90
2021/03/18 05:06:49;;;;;;;16.80;2.80;;;;;;;;;;4917868;28;20027;-90
2021/03/18 05:09:18;;;;;;;15.23;3.08;;;;;;;;;;4928989;28;20051;-88
2021/03/18 05:11:48;;;;;;;13.85;2.78;;;;;;;;;;4906952;28;20051;-90
2021/03/18 05:14:18;;;;;;;14.52;2.65;;;;;;;;;;4874306;28;20047;-91
2021/03/18 05:16:48;;;;;;;14.70;2.88;;;;;;;;;;4915865;28;20042;-90
2021/03/18 05:19:15;;;;;;;13.27;3.20;;;;;;;;;;4913243;29;20051;-90
2021/03/18 05:21:46;;;;;;;15.07;2.47;;;;;;;;;;4933604;28;20046;-90
2021/03/18 05:24:14;;;;;;;16.70;3.22;;;;;;;;;;4951579;28;20045;-90
2021/03/18 05:26:41;;;;;;;16.85;3.45;;;;;;;;;;4937931;28;20035;-90
2021/03/18 05:29:08;;;;;;;14.20;2.80;;;;;;;;;;4951538;28;20050;-91
2021/03/18 05:31:37;;;;;;;14.23;2.72;;;;;;;;;;4953428;28;20130;-90
2021/03/18 05:34:05;;;;;;;14.20;2.70;;;;;;;;;;4926397;28;20054;-89
2021/03/18 05:36:32;;;;;;;13.75;2.55;;;;;;;;;;4931267;28;20031;-90
2021/03/18 05:38:59;;;;;;;13.77;2.83;;;;;;;;;;4939287;28;20127;-90
2021/03/18 05:41:29;;;;;;;17.52;2.80;;;;;;;;;;4875506;28;20044;-91
2021/03/18 05:43:57;;;;;;;19.45;2.70;;;;;;;;;;4923859;28;20050;-90
2021/03/18 05:46:26;;;;;;;13.65;2.78;;;;;;;;;;4919056;28;20081;-90
2021/03/18 05:48:53;;;;;;;14.48;2.92;;;;;;;;;;4933122;28;20043;-90
2021/03/18 05:51:20;;;;;;;12.73;2.72;;;;;;;;;;4921391;28;20039;-89
2021/03/18 05:53:52;;;;;;;12.18;2.45;;;;;;;;;;4946959;28;20043;-89
2021/03/18 05:56:19;;;;;;;14.07;3.28;;;;;;;;;;4937290;28;20148;-90
2021/03/18 05:59:05;;;;;;;13.85;2.92;;;;;;;;;;4915798;29;20042;-89
2021/03/18 06:01:34;;;;;;;15.68;2.88;;;;;;;;;;4883845;29;20044;-89
2021/03/18 06:04:01;;;;;;;13.63;2.90;;;;;;;;;;4891671;29;20062;-90
2021/03/18 06:06:30;;;;;;;14.05;2.60;;;;;;;;;;4888092;29;20087;-90
2021/03/18 06:08:56;;;;;;;16.05;3.00;;;;;;;;;;4890280;29;20075;-91
2021/03/18 06:11:24;;;;;;;;;;;;;;;;;;4891816;29;20083;-89
2021/03/18 06:13:54;;;;;;;13.13;2.45;;;;;;;;;;4857381;29;19915;-84
2021/03/18 06:16:23;;;;;;;11.52;2.40;;;;;;;;;;4858616;29;20100;-83
2021/03/18 06:18:52;;;;;;;12.85;2.38;;;;;;;;;;4854794;29;20099;-83
2021/03/18 06:21:21;;;;;;;13.05;2.90;;;;;;;;;;4839220;29;20060;-82
2021/03/18 06:24:01;;;;;;;16.00;3.13;;;;;;;;;;4823316;29;20287;-83
2021/03/18 06:26:36;;;;;;;13.95;2.90;;;;;;;;;;4853668;29;20070;-83
2021/03/18 06:29:06;;;;;;;13.70;2.47;;;;;;;;;;4816135;29;20040;-83
2021/03/18 06:31:36;;;;;;;19.58;2.95;;;;;;;;;;4833773;29;20053;-82
2021/03/18 06:34:06;;;;;;;15.60;2.75;;;;;;;;;;4813116;29;20062;-80
2021/03/18 06:36:34;;;;;;;18.55;3.78;;;;;;;;;;4835333;29;20052;-80
2021/03/18 06:39:14;;;;;;;12.15;2.45;;;;;;;;;;4853777;29;20044;-80
2021/03/18 06:41:47;;;;;;;16.10;2.70;;;;;;;;;;4856998;29;20068;-81
2021/03/18 06:44:24;;;;;;;15.25;2.95;;;;;;;;;;4853192;29;20121;-81
2021/03/18 06:46:53;;;;;;;15.52;2.90;;;;;;;;;;4857610;29;20041;-82
2021/03/18 06:49:23;;;;;;;12.70;3.50;;;;;;;;;;4831230;29;20045;-83
2021/03/18 06:52:12;;;;;;;12.20;2.70;;;;;;;;;;4844171;29;20111;-82
2021/03/18 06:54:43;;;;;;;17.45;2.85;;;;;;;;;;4864057;29;20135;-82
2021/03/18 06:57:10;;;;;;;13.40;3.08;;;;;;;;;;4854418;29;20068;-82
2021/03/18 06:59:38;;;;;;;18.65;3.45;;;;;;;;;;4865356;29;20036;-82
2021/03/18 07:02:15;;;;;;;13.60;2.42;;;;;;;;;;4826104;29;20040;-80
2021/03/18 07:04:43;;;;;;;15.73;2.42;;;;;;;;;;4875210;29;20104;-81
2021/03/18 07:07:13;;;;;;;10.80;2.25;;;;;;;;;;4881861;29;20180;-82
2021/03/18 07:09:42;;;;;;;12.93;2.50;;;;;;;;;;4872782;29;20043;-81
2021/03/18 07:12:14;;;;;;;13.63;2.28;;;;;;;;;;4873692;29;20041;-83
2021/03/18 07:14:56;;;;;;;12.65;2.63;;;;;;;;;;4874824;29;20059;-83
2021/03/18 07:17:34;;;;;;;15.73;2.75;;;;;;;;;;4898204;28;20045;-83
2021/03/18 07:20:23;;;;;;;11.98;2.50;;;;;;;;;;4900669;28;20050;-82
2021/03/18 07:22:55;;;;;;;15.52;2.58;;;;;;;;;;4878326;29;20091;-82
2021/03/18 07:25:27;;;;;;;9.88;2.20;;;;;;;;;;4904207;28;20054;-82
2021/03/18 07:27:55;;;;;;;12.50;2.33;;;;;;;;;;4901314;28;20423;-83
2021/03/18 07:30:38;;;;;;;12.90;2.42;;;;;;;;;;4900191;28;20094;-82
2021/03/18 07:33:07;;;;;;;16.17;3.10;;;;;;;;;;4910661;28;20130;-83
2021/03/18 07:35:35;;;;;;;12.55;3.30;;;;;;;;;;4911474;28;20065;-84
2021/03/18 07:38:02;;;;;;;14.50;3.08;;;;;;;;;;4899421;28;20039;-82
2021/03/18 07:40:30;;;;;;;11.13;2.95;;;;;;;;;;4904398;28;20194;-81
2021/03/18 07:42:57;;;;;;;14.85;3.45;;;;;;;;;;4907549;28;20043;-81
2021/03/18 07:45:26;;;;;;;12.77;2.83;;;;;;;;;;4927689;28;20061;-82
2021/03/18 07:47:55;;;;;;;13.73;2.72;;;;;;;;;;4906728;28;20034;-82
2021/03/18 07:50:44;;;;;;;11.00;2.58;;;;;;;;;;4927211;28;20100;-81
2021/03/18 07:53:18;;;;;;;11.20;2.70;;;;;;;;;;4905615;28;20032;-81
2021/03/18 07:55:46;;;;;;;15.10;2.75;;;;;;;;;;4884222;29;20123;-81
2021/03/18 07:58:15;;;;;;;11.52;2.40;;;;;;;;;;4882773;29;20042;-81
2021/03/18 08:00:48;;;;;;;14.77;3.00;;;;;;;;;;4907192;28;20994;-81
2021/03/18 08:03:21;;;;;;;15.55;3.42;;;;;;;;;;4934335;28;20938;-81
2021/03/18 08:05:51;;;;;;;15.32;4.05;;;;;;;;;;4911920;28;20031;-81
2021/03/18 08:08:37;;;;;;;13.82;4.10;;;;;;;;;;4873337;29;20050;-82
2021/03/18 08:11:05;;;;;;;14.90;3.20;;;;;;;;;;4830542;28;20132;-84
2021/03/18 08:13:34;;;;;;;12.52;3.10;;;;;;;;;;4903601;28;20076;-83
2021/03/18 08:16:03;;;;;;;14.05;3.30;;;;;;;;;;4882434;29;20048;-85
2021/03/18 08:18:34;;;;;;;12.18;3.35;;;;;;;;;;4934504;28;20348;-85
2021/03/18 08:21:07;;;;;;;13.43;3.28;;;;;;;;;;4944917;28;20586;-86
2021/03/18 08:23:38;;;;;;;10.88;3.22;;;;;;;;;;4922892;28;20101;-85
2021/03/18 08:26:27;;;;;;;13.88;3.13;;;;;;;;;;4899749;28;20114;-85
2021/03/18 08:29:01;;;;;;;14.23;3.17;;;;;;;;;;4906865;28;20102;-86
2021/03/18 08:31:35;;;;;;;13.80;3.13;;;;;;;;;;4896521;29;20502;-85
2021/03/18 08:34:03;;;;;;;13.18;3.03;;;;;;;;;;4902583;28;20039;-86
2021/03/18 08:36:34;;;;;;;15.07;3.17;;;;;;;;;;4900282;28;20043;-86
2021/03/18 08:39:13;;;;;;;11.45;2.53;;;;;;;;;;4914352;28;20031;-87
2021/03/18 08:41:49;;;;;;;13.38;3.25;;;;;;;;;;4899532;28;20544;-85
2021/03/18 08:44:35;;;;;;;13.95;3.35;;;;;;;;;;4910959;29;20130;-86
2021/03/18 08:47:03;;;;;;;14.02;3.90;;;;;;;;;;4924070;28;20500;-83
2021/03/18 08:49:36;;;;;;;17.17;4.05;;;;;;;;;;4897999;28;20051;-85
2021/03/18 08:52:08;;;;;;;16.13;4.47;;;;;;;;;;4909585;28;20058;-85
2021/03/18 08:54:51;;;;;;;14.25;4.65;;;;;;;;;;4915548;28;20049;-84
2021/03/18 08:57:26;;;;;;;13.82;3.55;;;;;;;;;;4913854;28;20359;-84
2021/03/18 08:59:56;;;;;;;12.98;3.25;;;;;;;;;;4891104;28;20048;-85
2021/03/18 09:02:29;;;;;;;12.25;2.90;;;;;;;;;;4927905;28;20031;-85
2021/03/18 09:05:00;;;;;;;11.18;2.95;;;;;;;;;;4905291;28;20146;-85
2021/03/18 09:07:29;;;;;;;14.15;2.42;;;;;;;;;;4910915;28;20340;-86
2021/03/18 09:10:06;;;;;;;13.13;3.00;;;;;;;;;;4894491;29;20044;-85
2021/03/18 09:12:36;;;;;;;11.77;2.70;;;;;;;;;;4918514;28;20034;-85
2021/03/18 09:15:30;;;;;;;13.45;3.00;;;;;;;;;;4914760;28;20019;-85
2021/03/18 09:18:19;;;;;;;10.82;3.00;;;;;;;;;;4926297;28;20094;-85
2021/03/18 09:20:59;;;;;;;13.95;3.55;;;;;;;;;;4919133;29;20103;-85
2021/03/18 09:23:28;;;;;;;16.27;3.20;;;;;;;;;;4911607;28;20047;-85
2021/03/18 09:26:01;;;;;;;14.57;3.25;;;;;;;;;;4911978;28;20039;-84
2021/03/18 09:28:36;;;;;;;13.40;3.65;;;;;;;;;;4907635;28;20104;-85
2021/03/18 09:31:04;;;;;;;14.00;3.58;;;;;;;;;;4897056;28;20051;-91
2021/03/18 09:33:58;;;;;;;14.55;3.08;;;;;;;;;;4930472;28;20036;-83
2021/03/18 09:36:30;;;;;;;16.58;3.47;;;;;;;;;;4877981;28;20051;-83
2021/03/18 09:38:59;;;;;;;18.83;3.20;;;;;;;;;;4874356;29;20032;-84
2021/03/18 09:41:30;;;;;;;18.17;3.40;;;;;;;;;;4847384;29;20462;-86
2021/03/18 09:44:13;;;;;;;14.38;3.72;;;;;;;;;;4874072;29;20097;-87
2021/03/18 09:46:41;;;;;;;14.75;3.20;;;;;;;;;;4882681;29;20134;-90
2021/03/18 09:49:11;;;;;;;15.57;2.55;;;;;;;;;;4857370;29;21884;-88
2021/03/18 09:51:45;;;;;;;16.02;3.03;;;;;;;;;;4868270;29;20579;-88
2021/03/18 09:54:17;;;;;;;12.48;3.10;;;;;;;;;;4887895;29;20088;-88
2021/03/18 09:56:50;;;;;;;14.85;3.22;;;;;;;;;;4863292;29;20437;-86
2021/03/18 09:59:18;;;;;;;15.25;3.58;;;;;;;;;;4881907;29;20037;-88
2021/03/18 10:01:44;;;;;;;13.98;2.90;;;;;;;;;;4884896;29;20048;-91
2021/03/18 10:04:18;;;;;;;15.15;3.65;;;;;;;;;;4829395;29;20045;-87
2021/03/18 10:06:58;;;;;;;17.15;4.18;;;;;;;;;;4855043;29;20854;-86
2021/03/18 10:09:27;;;;;;;14.70;3.67;;;;;;;;;;4848591;29;20104;-88
2021/03/18 10:12:12;;;;;;;16.70;4.00;;;;;;;;;;4837439;29;20593;-87
2021/03/18 10:14:51;;;;;;;18.52;4.10;;;;;;;;;;4835194;29;20038;-86
2021/03/18 10:17:37;;;;;;;16.35;3.08;;;;;;;;;;4794850;29;20126;-83
2021/03/18 10:20:28;;;;;;;15.98;3.10;;;;;;;;;;4829247;29;20045;-84
2021/03/18 10:23:00;;;;;;;14.90;2.63;;;;;;;;;;4819917;29;20499;-87
2021/03/18 10:25:34;;;;;;;17.23;2.90;;;;;;;;;;4817147;29;20042;-86
2021/03/18 10:28:11;;;;;;;16.00;3.67;;;;;;;;;;4837664;29;20129;-90
2021/03/18 10:31:03;;;;;;;14.45;3.58;;;;;;;;;;4849269;29;20040;-85
2021/03/18 10:33:36;;;;;;;15.98;3.40;;;;;;;;;;4860216;29;20045;-88
2021/03/18 10:36:04;;;;;;;14.25;3.45;;;;;;;;;;4878516;29;20126;-88
2021/03/18 10:38:44;;;;;;;14.00;3.13;;;;;;;;;;4838720;29;20038;-88
2021/03/18 10:41:15;;;;;;;17.33;3.88;;;;;;;;;;4790121;29;20101;-88
2021/03/18 10:43:49;;;;;;;14.00;3.75;;;;;;;;;;4850014;29;20034;-87
2021/03/18 10:46:20;;;;;;;18.48;3.58;;;;;;;;;;4848110;29;20046;-83
2021/03/18 10:48:49;;;;;;;14.30;3.67;;;;;;;;;;4840170;29;20059;-89
2021/03/18 10:51:45;;;;;;;13.43;2.70;;;;;;;;;;4888409;29;20044;-89
2021/03/18 10:54:20;;;;;;;13.15;2.90;;;;;;;;;;4819111;29;20044;-89
2021/03/18 10:56:46;;;;;;;15.57;3.55;;;;;;;;;;4834094;29;20034;-83
2021/03/18 10:59:20;;;;;;;13.35;3.40;;;;;;;;;;4807018;29;20081;-81
2021/03/18 11:02:07;;;;;;;12.02;3.55;;;;;;;;;;4807689;29;20471;-90
2021/03/18 11:04:50;;;;;;;13.52;3.30;;;;;;;;;;4818468;29;20042;-88
2021/03/18 11:07:18;;;;;;;12.45;3.15;;;;;;;;;;4826778;29;20101;-87
2021/03/18 11:09:44;;;;;;;13.98;3.80;;;;;;;;;;4844586;29;20066;-84
2021/03/18 11:12:11;;;;;;;14.20;3.00;;;;;;;;;;4883600;29;20055;-89
2021/03/18 11:14:55;;;;;;;16.48;3.20;;;;;;;;;;4875129;29;20076;-88
2021/03/18 11:17:30;;;;;;;13.40;2.97;;;;;;;;;;4863669;29;20136;-88
2021/03/18 11:20:08;;;;;;;14.60;4.65;;;;;;;;;;4838336;29;20036;-88
2021/03/18 11:22:37;;;;;;;18.73;8.25;;;;;;;;;;4854845;29;20120;-86
2021/03/18 11:25:06;;;;;;;15.13;5.40;;;;;;;;;;4855571;29;20335;-84
2021/03/18 11:27:33;;;;;;;13.88;3.45;;;;;;;;;;4831494;29;20124;-85
2021/03/18 11:30:23;;;;;;;13.48;3.15;;;;;;;;;;4864617;29;20122;-85
2021/03/18 11:33:09;;;;;;;15.90;2.90;;;;;;;;;;4791463;29;20042;-82
2021/03/18 11:35:37;;;;;;;11.50;2.40;;;;;;;;;;4795773;29;20042;-81
2021/03/18 11:38:03;;;;;;;13.70;2.63;;;;;;;;;;4847519;29;20041;-88
2021/03/18 11:40:32;;;;;;;13.52;2.88;;;;;;;;;;4855744;29;20040;-89
2021/03/18 11:42:59;;;;;;;11.18;2.58;;;;;;;;;;4876453;29;20104;-87
2021/03/18 11:45:38;;;;;;;12.27;3.00;;;;;;;;;;4890839;29;20039;-89
2021/03/18 11:48:06;;;;;;;13.85;2.65;;;;;;;;;;4876698;29;20045;-88
2021/03/18 11:50:32;;;;;;;11.68;2.70;;;;;;;;;;4882593;29;20040;-92
2021/03/18 11:52:58;;;;;;;13.05;2.97;;;;;;;;;;4877343;29;20058;-90
2021/03/18 11:55:45;;;;;;;18.23;4.43;;;;;;;;;;4875747;29;20072;-88
2021/03/18 11:58:13;;;;;;;16.98;3.42;;;;;;;;;;4877573;29;20116;-84
2021/03/18 12:00:40;;;;;;;14.90;3.08;;;;;;;;;;4847761;29;20065;-88
2021/03/18 12:03:08;;;;;;;13.02;2.95;;;;;;;;;;4888681;29;20035;-90
2021/03/18 12:05:38;;;;;;;13.40;3.22;;;;;;;;;;4878997;29;20037;-91
2021/03/18 12:08:05;;;;;;;13.95;3.30;;;;;;;;;;4870197;29;20040;-89
2021/03/18 12:10:33;;;;;;;12.45;3.00;;;;;;;;;;4882978;29;20494;-91
2021/03/18 12:13:02;;;;;;;11.18;2.53;;;;;;;;;;4876562;29;20049;-91
2021/03/18 12:15:29;;;;;;;12.77;2.47;;;;;;;;;;4876035;29;20101;-86
2021/03/18 12:17:55;;;;;;;12.43;2.72;;;;;;;;;;4856582;29;20080;-85
2021/03/18 12:20:22;;;;;;;15.30;2.70;;;;;;;;;;4870257;29;20489;-84
2021/03/18 12:22:49;;;;;;;14.73;3.00;;;;;;;;;;4884861;29;20044;-82
2021/03/18 12:25:16;;;;;;;12.48;4.30;;;;;;;;;;4904594;28;20036;-85
2021/03/18 12:27:43;;;;;;;13.43;3.30;;;;;;;;;;4906980;29;20048;-84
2021/03/18 12:30:15;;;;;;;12.35;2.85;;;;;;;;;;4912189;29;20094;-84
2021/03/18 12:32:42;;;;;;;14.88;2.63;;;;;;;;;;4885168;29;20051;-83
2021/03/18 12:35:10;;;;;;;10.00;2.67;;;;;;;;;;4872357;29;20825;-85
2021/03/18 12:37:36;;;;;;;10.50;2.60;;;;;;;;;;4915266;29;20051;-83
2021/03/18 12:40:05;;;;;;;12.23;2.80;;;;;;;;;;4895940;29;20044;-84
2021/03/18 12:42:34;;;;;;;12.48;2.35;;;;;;;;;;4910891;28;20382;-82
2021/03/18 12:45:00;;;;;;;12.95;3.20;;;;;;;;;;4888476;29;20051;-82
2021/03/18 12:47:28;;;;;;;13.20;3.22;;;;;;;;;;4914832;29;20043;-85
2021/03/18 12:49:54;;;;;;;11.73;2.85;;;;;;;;;;4894474;29;20044;-87
2021/03/18 12:52:25;;;;;;;15.00;2.85;;;;;;;;;;4902566;28;20083;-85
2021/03/18 12:54:51;;;;;;;10.98;2.53;;;;;;;;;;4907001;28;20138;-85
2021/03/18 12:57:18;;;;;;;10.02;2.25;;;;;;;;;;4908764;29;20051;-82
2021/03/18 12:59:49;;;;;;;15.30;3.00;;;;;;;;;;4883414;29;20051;-83
2021/03/18 13:02:20;;;;;;;11.43;2.95;;;;;;;;;;4876475;29;20044;-82
2021/03/18 13:04:47;;;;;;;12.48;2.30;;;;;;;;;;4905931;29;20043;-83
2021/03/18 13:07:15;;;;;;;14.52;3.00;;;;;;;;;;4903959;28;20421;-83
2021/03/18 13:09:43;;;;;;;11.05;3.30;;;;;;;;;;4885098;29;20064;-81
2021/03/18 13:12:11;;;;;;;12.05;2.60;;;;;;;;;;4880972;29;21060;-81
2021/03/18 13:14:38;;;;;;;12.65;3.00;;;;;;;;;;4840739;29;20039;-81
2021/03/18 13:17:07;;;;;;;11.05;2.75;;;;;;;;;;4818722;29;20092;-83
2021/03/18 13:19:38;;;;;;;9.32;2.53;;;;;;;;;;4855346;29;20151;-81
2021/03/18 13:22:06;;;;;;;11.73;2.72;;;;;;;;;;4855971;29;20029;-85
2021/03/18 13:24:35;;;;;;;10.95;2.45;;;;;;;;;;4886938;29;20040;-85
2021/03/18 13:27:02;;;;;;;10.80;2.33;;;;;;;;;;4874558;29;20035;-85
2021/03/18 13:29:31;;;;;;;11.70;2.60;;;;;;;;;;4894074;29;20031;-84
2021/03/18 13:32:00;;;;;;;11.95;2.40;;;;;;;;;;4871021;29;20260;-84
2021/03/18 13:34:27;;;;;;;14.48;2.63;;;;;;;;;;4876557;29;20032;-83
2021/03/18 13:36:56;;;;;;;10.40;2.70;;;;;;;;;;4880421;29;20168;-85
2021/03/18 13:39:24;;;;;;;10.80;2.40;;;;;;;;;;4859161;29;20508;-85
2021/03/18 13:41:51;;;;;;;12.43;2.90;;;;;;;;;;4881377;29;20103;-85
2021/03/18 13:44:20;;;;;;;12.88;3.38;;;;;;;;;;4838145;29;20045;-85
2021/03/18 13:46:49;;;;;;;10.95;2.53;;;;;;;;;;4865066;29;20159;-85
2021/03/18 13:49:21;;;;;;;13.10;2.80;;;;;;;;;;4877417;29;20153;-84
2021/03/18 13:51:50;;;;;;;12.90;2.80;;;;;;;;;;4825347;29;20044;-82
2021/03/18 13:54:25;;;;;;;11.75;2.78;;;;;;;;;;4889428;29;20153;-84
2021/03/18 13:56:53;;;;;;;12.32;2.45;;;;;;;;;;4905788;29;20036;-83
2021/03/18 13:59:19;;;;;;;13.15;2.80;;;;;;;;;;4877152;29;20036;-83
2021/03/18 14:01:46;;;;;;;10.40;2.50;;;;;;;;;;4841854;29;20041;-81
2021/03/18 14:04:13;;;;;;;11.30;2.80;;;;;;;;;;4883004;28;20047;-81
2021/03/18 14:06:49;;;;;;;11.20;2.70;;;;;;;;;;4880662;28;20053;-83
2021/03/18 14:09:16;;;;;;;13.05;3.15;;;;;;;;;;4893427;29;20034;-83
2021/03/18 14:11:49;;;;;;;12.48;3.08;;;;;;;;;;4864327;29;20067;-83
2021/03/18 14:14:27;;;;;;;12.60;2.90;;;;;;;;;;4881995;29;20032;-84
2021/03/18 14:16:53;;;;;;;14.30;2.67;;;;;;;;;;4895628;29;20040;-81
2021/03/18 14:19:20;;;;;;;12.05;3.38;;;;;;;;;;4864059;29;20040;-81
2021/03/18 14:21:49;;;;;;;12.38;3.20;;;;;;;;;;4835238;29;20045;-82
2021/03/18 14:24:20;;;;;;;11.73;2.80;;;;;;;;;;4859249;29;20068;-81
2021/03/18 14:26:47;;;;;;;13.07;3.10;;;;;;;;;;4776826;29;20042;-81
2021/03/18 14:29:19;;;;;;;13.02;3.55;;;;;;;;;;4818920;29;20156;-81
2021/03/18 14:31:48;;;;;;;12.30;3.17;;;;;;;;;;4830375;29;20540;-81
2021/03/18 14:34:19;;;;;;;11.82;3.00;;;;;;;;;;4827790;29;20041;-81
2021/03/18 14:36:47;;;;;;;13.02;2.90;;;;;;;;;;4819633;29;20038;-81
2021/03/18 14:39:14;;;;;;;11.65;2.80;;;;;;;;;;4829889;29;20068;-82
2021/03/18 14:41:44;;;;;;;11.88;2.80;;;;;;;;;;4829174;29;20041;-81
2021/03/18 14:44:13;;;;;;;10.30;2.80;;;;;;;;;;4814277;29;20056;-82
2021/03/18 14:46:39;;;;;;;12.27;2.75;;;;;;;;;;4816569;29;20141;-85
2021/03/18 14:49:06;;;;;;;13.07;3.00;;;;;;;;;;4829680;29;20037;-86
2021/03/18 14:51:36;;;;;;;11.38;2.70;;;;;;;;;;4873851;29;20036;-84
2021/03/18 14:54:08;;;;;;;14.07;3.20;;;;;;;;;;4889478;29;20508;-84
2021/03/18 14:56:36;;;;;;;12.07;3.00;;;;;;;;;;4894805;29;20047;-82
2021/03/18 14:59:05;;;;;;;13.32;3.22;;;;;;;;;;4860856;29;20066;-83
2021/03/18 15:01:35;;;;;;;13.27;3.60;;;;;;;;;;4813542;29;20719;-82